Onweer radar Meer informatie blitzortung!


Regen radar Meer informatie rain snow radar


Apparatuur in gebruik:

Davis VP2

Meteohub

ALIX 1D

Web-Oke


METAR rapporten vliegvelden

   
EHAM - Amsterdam/Schiph, Netherlands
Afstand tot: WZW 42 km
Gewijzigd: 07-12-2022 04:25
Licht bewolkt  
Licht bewolkt  
   Wind: varieert 1.9 km/h
Wind: varieert 1.9 km/h
Temperatuur: 1°C
Dauwpunt: 1°C
Vochtigheid: 100%
Barometer: 1017 hPa
Bewolking: Licht bewolkt
Zicht: meer dan 10 km
Bewolking: Licht bewolkt 731.5 m
EHAM 070325Z VRB01KT 9999 FEW024 01/01 Q1017 TEMPO -SHRA FEW022CB
EHDL - Deelen Rnlafb, Netherlands
Afstand tot: ZO 49 km
Gewijzigd: 07-12-2022 04:25
Nevel, Bewolking  
Nevel, Bewolking  
   Wind: Westen 1.9 km/h
Wind: Westen 1.9 km/h
Temperatuur: 0°C
Dauwpunt: 0°C
Vochtigheid: 100%
Barometer: 1017 hPa
Bewolking: Bewolking
Zicht: 5 km
Bewolking: Grotendeels bewolkt 1097.3 m,
Bewolking 1249.7 m
EHDL 070325Z AUTO 28001KT 5000 BR BKN036 OVC041 00/00 Q1017 WHT
EHKD - De Kooy (navy), Netherlands
Afstand tot: NW 72 km
Gewijzigd: 07-12-2022 04:25
Grotendeels bewolkt  
Grotendeels bewolkt  
   Wind: NW 24.1 km/h<br />Gust to 24.1 km/h
Wind: NW 24.1 km/h
Gust to 24.1 km/h
Temperatuur: 6°C
Voelt als: 2°C
Dauwpunt: 2°C
Vochtigheid: 76%
Barometer: 1017 hPa
Bewolking: Grotendeels bewolkt
Zicht: meer dan 10 km
Bewolking: Licht bewolkt 792.5 m,
Gedeeltelijk bewolkt 1036.3 m,
Grotendeels bewolkt 1219.2 m
EHKD 070325Z AUTO 32013G23KT 290V030 9999 FEW026 SCT034 BKN040 06/02 Q1017 BLU
EHRD - Rotterdam Airpor, Netherlands
Afstand tot: ZW 80 km
Gewijzigd: 07-12-2022 04:25
Wat regen mogelijk, Grotendeels bewolkt  
Wat regen mogelijk, Grotendeels bewolkt  
   Wind: varieert 1.9 km/h
Wind: varieert 1.9 km/h
Temperatuur: 1°C
Dauwpunt: 1°C
Vochtigheid: 100%
Barometer: 1018 hPa
Bewolking: Grotendeels bewolkt
Zicht: meer dan 10 km
Bewolking: Licht bewolkt 609.6 m,
Gedeeltelijk bewolkt 914.4 m,
Grotendeels bewolkt 1066.8 m
EHRD 070325Z AUTO VRB01KT 9999 -RA FEW020 SCT030 BKN035 01/01 Q1018 REDZRA NOSIG
EHVK - Volkel Rnlafb, Netherlands
Afstand tot: ZZO 87 km
Gewijzigd: 07-12-2022 04:25
Nevel, Gedeeltelijk bewolkt  
Nevel, Gedeeltelijk bewolkt  
   Wind: Westen 9.3 km/h
Wind: Westen 9.3 km/h
Temperatuur: 3°C
Voelt als: 1°C
Dauwpunt: 2°C
Vochtigheid: 93%
Barometer: 1017 hPa
Bewolking: Gedeeltelijk bewolkt
Zicht: 6 km
Bewolking: Licht bewolkt 1127.8 m,
Gedeeltelijk bewolkt 1402.1 m
EHVK 070325Z AUTO 27005KT 6000 BR FEW037 SCT046 03/02 Q1017 WHT
EHLW - Leeuwarden Rnlaf, Netherlands
Afstand tot: NNO 95 km
Gewijzigd: 07-12-2022 04:42
Grotendeels bewolkt  
Grotendeels bewolkt  
   Wind: NNW 24.1 km/h
Wind: NNW 24.1 km/h
Temperatuur: 5°C
Voelt als: 1°C
Dauwpunt: 1°C
Vochtigheid: 76%
Barometer: 1015 hPa
Bewolking: Grotendeels bewolkt
Zicht: meer dan 10 km
Bewolking: Gedeeltelijk bewolkt 640.1 m,
Grotendeels bewolkt 1554.5 m,
Grotendeels bewolkt 1828.8 m
EHLW 070342Z AUTO 33013KT 290V010 9999 SCT021 BKN051 BKN060 05/01 Q1015 WHT

Script ontwikkeld door  Saratoga-weather.org Aangepast voor de template door  Weerstation Leuven

U vindt ons ook hier:

Het Weer Aktueel

UK Metoffice

European Weather Network

Weather Underground

Benelux Weer Netwerk

AWEKAS